Camarillo, CA

3:49 AM PDT on August 28, 2014 (GMT -0700)
Camarillo | Change Station
CLOSE
Current Station
Airport
Location: Camarillo,
Elevation: 75 ft
Nearby Weather Stations
Active Advisory: High Surf Advisory Active Notice: Record Report

Elev 75 ft 34.21 °N, 119.09 °W | Updated 54 minutes ago

Clear
Clear
66 °F
Feels Like 66 °F
N
5
Wind Variable Wind from West

Today
High -- | Low -- °F
--% Chance of Precip.
Yesterday
High -- | Low -- °F
Precip. -- in
6:27 AM 7:27 PM
Waxing Crescent, 7% visible
Pressure 30.02 in
Visibility 10.0 miles
Clouds Clear
Dew Point 53 °F
Humidity 63%
Rainfall 0.00 in
Snow Depth Not available.
UV 0 out of 12
Pollen 8.60 out of 12
PM2.5 Moderate
Flu Activity Not available.
METAR KCMA 280955Z AUTO 28004KT 10SM CLR 19/12 A3000 RMK AO2 SLP164 T01890117

More Conditions Fewer Conditions

Pressure 30.02 in
Visibility 10.0 miles
Clouds Clear
Dew Point 53 °F
Humidity 63%
Rainfall 0.00 in
Snow Depth Not available.
UV 0 out of 12
Pollen 8.60 out of 12
PM2.5 Moderate
Flu Activity Not available.
METAR KCMA 280955Z AUTO 28004KT 10SM CLR 19/12 A3000 RMK AO2 SLP164 T01890117

More Conditions Fewer Conditions

10-Day Weather Forecast

Almanac

Astronomy

Aug. 28, 2014 Rise Set
Actual Time 6:27 AM PDT 7:27 PM PDT
Civil Twilight 6:01 AM PDT 7:53 PM PDT
Nautical Twilight 5:30 AM PDT 8:23 PM PDT
Astronomical Twilight 4:59 AM PDT 8:55 PM PDT
Moon 9:14 AM PDT 9:04 PM PDT
Length of Visible Light 13h 51m
Length of Day
13h 00m
Tomorrow will be 2m 0s shorter.
Waxing Crescent, 7% of the Moon is Illuminated
Today
Waxing Crescent
Sep 2
First Quarter
Sep 8
Full
Sep 15
Last Quarter
Sep 24
New

Today's Extremes

State Highs State Lows

Community

WunderPhotos

Upload Photos

1,747,920 photos uploaded!

Nearby

Air Quality

  Air Quality AQ Index Pollutant
Yesterday Moderate
PM2.5
Yesterday Good
OZONE
Current Moderate
PM2.5
Thursday Good
OZONE
Thursday Good
PM2.5
Friday Good
OZONE
Friday Good
PM2.5
Saturday Good
OZONE
Saturday Good
PM2.5
Sunday Good
OZONE
Sunday Good
PM2.5
Monday Good
OZONE
Monday Good
PM2.5

Snow Depth

Station Depth Elevation
Leavitt Lake 1 in 9400 ft
Sonora Pass 0 in 8800 ft
Leavitt Meadows 1 in 7200 ft
Summit Meadow 0 in 9122 ft
Blue Lakes 0 in 8000 ft

Earthquake Activity

City Distance Mag. Time & Date
San Fernando, California 39 miles 2.5 4:57 AM PDT
2014-08-26
Minimum magnitude displayed is 2.5.

Coastal Water Temperatures

Place Temperature
Los Angeles, CA 66.0 °F
Port San Luis, CA 62.1 °F

Nearby Weather Stations